createdAt,value
2023-03-13T00:01:38.192Z,100024.25
2023-03-13T00:04:09.365Z,100014.38
2023-03-13T00:06:39.923Z,100008.34
2023-03-13T00:09:10.812Z,100008.25
2023-03-13T00:11:39.901Z,99995.16
2023-03-13T00:14:10.443Z,99997.38
2023-03-13T00:16:40.487Z,99989.81
2023-03-13T00:19:11.381Z,99980.34
2023-03-13T00:21:41.181Z,99979.06
2023-03-13T00:24:11.968Z,99975.22
2023-03-13T00:26:41.008Z,99964.50
2023-03-13T00:29:10.023Z,99969.72
2023-03-13T00:31:39.076Z,99967.50
2023-03-13T00:34:08.106Z,99972.06
2023-03-13T00:36:40.856Z,99969.16
2023-03-13T00:39:10.572Z,99964.91
2023-03-13T00:41:39.959Z,99954.47
2023-03-13T00:44:09.183Z,99956.25
2023-03-13T00:46:38.564Z,99948.69
2023-03-13T00:49:07.990Z,99933.59
2023-03-13T00:51:37.002Z,99933.63
2023-03-13T00:54:07.425Z,99939.97
2023-03-13T00:56:37.039Z,99931.19
2023-03-13T00:59:06.280Z,99916.75
2023-03-13T01:01:36.974Z,99921.28
2023-03-13T01:04:07.807Z,99917.84
2023-03-13T01:06:40.413Z,99907.41
2023-03-13T01:09:12.691Z,99909.38
2023-03-13T01:11:43.924Z,99914.16
2023-03-13T01:14:15.895Z,99906.75
2023-03-13T01:16:45.193Z,99900.16
2023-03-13T01:19:16.651Z,99907.16
2023-03-13T01:21:47.580Z,99896.31
2023-03-13T01:24:19.181Z,99894.41
2023-03-13T01:26:48.466Z,99892.88
2023-03-13T01:29:18.186Z,99884.91
2023-03-13T01:31:47.506Z,99878.72
2023-03-13T01:34:16.517Z,99868.53
2023-03-13T01:36:46.719Z,99863.44
2023-03-13T01:39:17.254Z,99861.38
2023-03-13T01:41:46.329Z,99859.44
2023-03-13T01:44:23.397Z,99855.34
2023-03-13T01:46:53.034Z,99843.94
2023-03-13T01:49:33.251Z,99828.94
2023-03-13T01:52:19.466Z,99827.56
2023-03-13T01:55:14.842Z,99821.38
2023-03-13T01:57:49.372Z,99808.28
2023-03-13T02:00:23.785Z,99814.22
2023-03-13T02:02:56.329Z,99802.13
2023-03-13T02:05:28.450Z,99798.13
2023-03-13T02:08:01.966Z,99786.41
2023-03-13T02:10:45.126Z,99778.31
2023-03-13T02:13:17.332Z,99775.31
2023-03-13T02:15:47.303Z,99772.53
2023-03-13T02:18:17.236Z,99756.34
2023-03-13T02:20:51.690Z,99764.31
2023-03-13T02:23:28.817Z,99753.28
2023-03-13T02:25:59.480Z,99753.84
2023-03-13T02:28:39.299Z,99747.38
2023-03-13T02:31:13.209Z,99742.03
2023-03-13T02:33:43.958Z,99733.41
2023-03-13T02:36:17.761Z,99731.59
2023-03-13T02:38:54.833Z,99723.59
2023-03-13T02:41:26.571Z,99714.84
2023-03-13T02:43:57.352Z,99720.63
2023-03-13T02:46:26.567Z,99704.13
2023-03-13T02:48:57.656Z,99706.09
2023-03-13T02:51:33.637Z,99708.00
2023-03-13T02:54:07.685Z,99703.88
2023-03-13T02:56:39.965Z,99697.41
2023-03-13T02:59:10.667Z,99686.56
2023-03-13T03:01:42.296Z,99687.44
2023-03-13T03:04:11.466Z,99676.69
2023-03-13T03:06:40.930Z,99668.59
2023-03-13T03:09:10.264Z,99665.84
2023-03-13T03:11:41.260Z,99664.34
2023-03-13T03:14:14.955Z,99664.72
2023-03-13T03:16:47.235Z,99658.25
2023-03-13T03:19:16.627Z,99652.50
2023-03-13T03:21:45.719Z,99645.38
2023-03-13T03:24:14.704Z,99644.69
2023-03-13T03:26:45.168Z,99642.34
2023-03-13T03:29:21.192Z,99640.44
2023-03-13T03:31:53.251Z,99629.28
2023-03-13T03:34:22.871Z,99618.97
2023-03-13T03:36:52.517Z,99616.22
2023-03-13T03:39:21.686Z,99614.81
2023-03-13T03:41:52.685Z,99600.94
2023-03-13T03:44:21.948Z,99605.91
2023-03-13T03:46:59.986Z,99590.78
2023-03-13T03:49:32.402Z,99587.94
2023-03-13T03:52:01.729Z,99577.31
2023-03-13T03:54:36.167Z,99576.22
2023-03-13T03:57:07.064Z,99575.31
2023-03-13T03:59:37.026Z,99561.94
2023-03-13T04:02:09.487Z,99561.94
2023-03-13T04:04:38.912Z,99557.16
2023-03-13T04:07:30.930Z,99552.19
2023-03-13T04:10:01.170Z,99550.69
2023-03-13T04:12:38.900Z,99541.66
2023-03-13T04:15:08.867Z,99538.06
2023-03-13T04:17:39.310Z,99532.56
2023-03-13T04:20:11.273Z,99518.16
2023-03-13T04:22:40.624Z,99521.31
2023-03-13T04:25:10.881Z,99506.91
2023-03-13T04:27:41.639Z,99497.94
2023-03-13T04:30:12.618Z,99495.84
2023-03-13T04:32:51.326Z,99472.97
2023-03-13T04:35:45.116Z,99465.94
2023-03-13T04:38:26.695Z,99462.66
2023-03-13T04:41:04.552Z,99444.78
2023-03-13T04:44:10.416Z,99442.25
2023-03-13T04:46:39.384Z,99435.06
2023-03-13T04:49:16.739Z,99427.84
2023-03-13T04:51:57.898Z,99423.13
2023-03-13T04:54:50.951Z,99410.91
2023-03-13T04:57:31.231Z,99406.25
2023-03-13T05:00:28.058Z,99391.94
2023-03-13T05:03:13.033Z,99381.66
2023-03-13T05:05:53.113Z,99373.41
2023-03-13T05:08:57.172Z,99358.06
2023-03-13T05:11:50.349Z,99364.56
2023-03-13T05:14:28.214Z,99343.47
2023-03-13T05:17:18.871Z,99327.28
2023-03-13T05:20:11.205Z,99315.00
2023-03-13T05:22:49.952Z,99316.47
2023-03-13T05:25:29.730Z,99303.28
2023-03-13T05:28:24.634Z,99295.38
2023-03-13T05:31:13.310Z,99298.19
2023-03-13T05:33:56.462Z,99285.31
2023-03-13T05:36:44.654Z,99279.34
2023-03-13T05:39:39.927Z,99275.72
2023-03-13T05:42:21.263Z,99300.22
2023-03-13T05:45:03.444Z,99282.09
2023-03-13T05:48:07.586Z,99270.56
2023-03-13T05:50:55.990Z,99267.69
2023-03-13T05:53:43.560Z,99260.00
2023-03-13T05:56:32.481Z,99249.16
2023-03-13T05:59:21.816Z,99234.97
2023-03-13T06:02:12.102Z,99236.13
2023-03-13T06:04:45.784Z,99235.28
2023-03-13T06:07:16.495Z,99229.66
2023-03-13T06:09:46.095Z,99232.09
2023-03-13T06:12:16.047Z,99222.97
2023-03-13T06:14:45.495Z,99219.41
2023-03-13T06:17:17.171Z,99223.34
2023-03-13T06:19:47.107Z,99211.91
2023-03-13T06:22:18.785Z,99204.06
2023-03-13T06:24:49.483Z,99203.09
2023-03-13T06:27:18.740Z,99213.44
2023-03-13T06:29:47.757Z,99203.66
2023-03-13T06:32:16.952Z,99194.41
2023-03-13T06:34:46.044Z,99187.09
2023-03-13T06:37:16.716Z,99178.28
2023-03-13T06:39:45.842Z,99182.38
2023-03-13T06:42:14.855Z,99178.81
2023-03-13T06:44:44.705Z,99183.41
2023-03-13T06:47:15.530Z,99167.41
2023-03-13T06:49:44.753Z,99168.22
2023-03-13T06:52:13.808Z,99150.09
2023-03-13T06:54:44.256Z,99144.75
2023-03-13T06:57:13.330Z,99140.19
2023-03-13T06:59:42.348Z,99133.03
2023-03-13T07:02:12.439Z,99133.19
2023-03-13T07:04:43.021Z,99118.81
2023-03-13T07:07:25.597Z,99119.16
2023-03-13T07:10:01.648Z,99103.31
2023-03-13T07:12:30.832Z,99110.16
2023-03-13T07:14:59.828Z,99121.78
2023-03-13T07:17:28.864Z,99123.09
2023-03-13T07:19:58.034Z,99112.63
2023-03-13T07:22:27.059Z,99098.38
2023-03-13T07:24:56.074Z,99090.88
2023-03-13T07:27:26.693Z,99091.31
2023-03-13T07:29:55.742Z,99095.09
2023-03-13T07:32:24.920Z,99088.69
2023-03-13T07:34:54.022Z,99087.03
2023-03-13T07:37:23.052Z,99076.41
2023-03-13T07:39:52.104Z,99075.25
2023-03-13T07:42:21.112Z,99072.47
2023-03-13T07:44:51.498Z,99072.28
2023-03-13T07:47:20.508Z,99071.63
2023-03-13T07:49:49.627Z,99076.69
2023-03-13T07:52:18.987Z,99060.66
2023-03-13T07:54:47.994Z,99069.09
2023-03-13T07:57:17.048Z,99058.94
2023-03-13T07:59:46.052Z,99078.38
2023-03-13T08:02:16.935Z,99070.53
2023-03-13T08:04:46.180Z,99055.13
2023-03-13T08:07:15.311Z,99050.81
2023-03-13T08:09:44.531Z,99055.03
2023-03-13T08:12:13.623Z,99047.63
2023-03-13T08:14:42.654Z,99041.88
2023-03-13T08:17:11.720Z,99034.66
2023-03-13T08:19:42.072Z,99041.47
2023-03-13T08:22:11.094Z,99042.94
2023-03-13T08:24:40.082Z,99039.97
2023-03-13T08:27:09.180Z,99024.81
2023-03-13T08:29:38.276Z,99016.88
2023-03-13T08:32:07.802Z,99022.13
2023-03-13T08:34:36.909Z,99011.94
2023-03-13T08:37:07.347Z,99020.25
2023-03-13T08:39:36.775Z,99017.41
2023-03-13T08:42:06.063Z,99022.47
2023-03-13T08:44:35.047Z,99009.19
2023-03-13T08:47:06.634Z,99015.88
2023-03-13T08:49:35.982Z,99005.28
2023-03-13T08:52:08.061Z,99009.47
2023-03-13T08:54:37.274Z,99007.22
2023-03-13T08:57:06.301Z,99017.88
2023-03-13T08:59:35.353Z,99004.22
2023-03-13T09:02:04.515Z,99005.06
2023-03-13T09:04:33.547Z,99012.66
2023-03-13T09:07:02.616Z,99000.44
2023-03-13T09:09:32.979Z,99012.94
2023-03-13T09:12:02.012Z,99005.78
2023-03-13T09:14:31.101Z,98991.75
2023-03-13T09:17:00.245Z,98991.47
2023-03-13T09:19:29.285Z,98975.63
2023-03-13T09:21:58.291Z,98982.91
2023-03-13T09:24:27.894Z,98972.75
2023-03-13T09:27:01.464Z,98946.28
2023-03-13T09:29:30.702Z,98980.19
2023-03-13T09:31:59.905Z,98984.53
2023-03-13T09:34:28.922Z,98970.63
2023-03-13T09:36:57.958Z,98972.72
2023-03-13T09:39:27.037Z,98988.56
2023-03-13T09:42:07.765Z,98971.06
2023-03-13T09:44:46.668Z,98975.16
2023-03-13T09:47:23.492Z,98967.28
2023-03-13T09:49:56.758Z,98976.69
2023-03-13T09:52:27.534Z,98982.66
2023-03-13T09:55:00.636Z,98986.38
2023-03-13T09:57:36.782Z,98987.44
2023-03-13T10:00:12.876Z,98983.44
2023-03-13T10:02:45.618Z,98972.88
2023-03-13T10:05:21.416Z,98985.63
2023-03-13T10:07:53.852Z,98979.06
2023-03-13T10:10:32.973Z,98991.22
2023-03-13T10:13:12.964Z,98986.06
2023-03-13T10:15:46.672Z,98991.97
2023-03-13T10:18:21.693Z,98990.13
2023-03-13T10:20:52.425Z,99008.09
2023-03-13T10:23:28.427Z,98998.06
2023-03-13T10:25:57.562Z,98979.75
2023-03-13T10:28:28.170Z,99003.09
2023-03-13T10:31:04.797Z,99002.81
2023-03-13T10:33:35.705Z,99007.53
2023-03-13T10:36:11.052Z,98993.94
2023-03-13T10:38:50.440Z,99014.84
2023-03-13T10:41:27.936Z,99010.72
2023-03-13T10:44:02.226Z,99014.19
2023-03-13T10:46:34.228Z,99007.00
2023-03-13T10:49:05.065Z,98995.28
2023-03-13T10:51:39.209Z,98999.38
2023-03-13T10:54:16.970Z,99003.88
2023-03-13T10:56:46.131Z,99006.50
2023-03-13T10:59:27.687Z,98984.94
2023-03-13T11:02:01.899Z,98977.97
2023-03-13T11:04:33.744Z,98994.06
2023-03-13T11:07:07.654Z,99006.00
2023-03-13T11:09:36.682Z,98994.44
2023-03-13T11:12:10.706Z,98992.22
2023-03-13T11:14:42.624Z,99000.88
2023-03-13T11:17:24.582Z,99013.28
2023-03-13T11:20:04.130Z,98990.06
2023-03-13T11:22:49.407Z,98998.13
2023-03-13T11:25:24.157Z,98979.78
2023-03-13T11:28:24.109Z,98975.06
2023-03-13T11:31:18.079Z,98972.47
2023-03-13T11:33:57.422Z,98970.63
2023-03-13T11:36:34.838Z,98959.63
2023-03-13T11:39:17.062Z,98959.06
2023-03-13T11:41:59.877Z,98947.25
2023-03-13T11:44:40.503Z,98948.69
2023-03-13T11:47:33.252Z,98935.69
2023-03-13T11:50:19.642Z,98954.41
2023-03-13T11:52:59.837Z,98917.78
2023-03-13T11:55:41.977Z,98939.72
2023-03-13T11:58:31.201Z,98908.91
2023-03-13T12:01:05.947Z,98927.22
2023-03-13T12:03:41.791Z,98927.69
2023-03-13T12:06:28.416Z,98926.63
2023-03-13T12:09:04.223Z,98929.53
2023-03-13T12:11:43.499Z,98928.53
2023-03-13T12:14:18.330Z,98925.50
2023-03-13T12:16:52.881Z,98920.06
2023-03-13T12:19:28.548Z,98926.88
2023-03-13T12:22:02.978Z,98952.16
2023-03-13T12:24:37.885Z,98922.97
2023-03-13T12:27:16.510Z,98947.22
2023-03-13T12:29:54.441Z,98928.00
2023-03-13T12:32:30.479Z,98908.41
2023-03-13T12:35:08.753Z,98925.63
2023-03-13T12:37:44.998Z,98923.09
2023-03-13T12:40:23.689Z,98942.31
2023-03-13T12:42:59.111Z,98922.47
2023-03-13T12:45:29.778Z,98902.94
2023-03-13T12:48:18.715Z,98917.13
2023-03-13T12:51:03.985Z,98902.59
2023-03-13T12:54:04.125Z,98923.25
2023-03-13T12:56:48.313Z,98917.81
2023-03-13T12:59:20.397Z,98920.75
2023-03-13T13:01:52.203Z,98912.63
2023-03-13T13:04:24.915Z,98888.88
2023-03-13T13:07:01.743Z,98913.22
2023-03-13T13:09:33.564Z,98915.63
2023-03-13T13:12:05.065Z,98900.47
2023-03-13T13:15:04.045Z,98899.28
2023-03-13T13:17:58.341Z,98890.59
2023-03-13T13:20:39.518Z,98909.75
2023-03-13T13:23:39.239Z,98876.13
2023-03-13T13:26:47.093Z,98882.34
2023-03-13T13:29:58.752Z,98876.81
2023-03-13T13:32:47.061Z,98868.41
2023-03-13T13:35:33.680Z,98862.75
2023-03-13T13:38:29.040Z,98868.78
2023-03-13T13:41:05.400Z,98836.84
2023-03-13T13:43:36.380Z,98804.72
2023-03-13T13:46:18.100Z,98829.72
2023-03-13T13:48:47.320Z,98833.50
2023-03-13T13:51:34.693Z,98833.16
2023-03-13T13:54:07.231Z,98833.16
2023-03-13T13:56:49.524Z,98829.66
2023-03-13T13:59:34.266Z,98814.94
2023-03-13T14:02:20.836Z,98824.97
2023-03-13T14:05:01.515Z,98828.03
2023-03-13T14:07:38.571Z,98817.63
2023-03-13T14:10:17.924Z,98812.16
2023-03-13T14:12:53.257Z,98802.44
2023-03-13T14:15:23.647Z,98792.97
2023-03-13T14:17:54.431Z,98795.47
2023-03-13T14:20:32.733Z,98787.69
2023-03-13T14:23:06.122Z,98787.88
2023-03-13T14:25:53.163Z,98779.88
2023-03-13T14:28:25.421Z,98794.81
2023-03-13T14:30:57.572Z,98801.53
2023-03-13T14:33:27.875Z,98779.38
2023-03-13T14:35:57.768Z,98793.78
2023-03-13T14:38:29.926Z,98777.91
2023-03-13T14:40:59.296Z,98784.50
2023-03-13T14:43:34.530Z,98772.19
2023-03-13T14:46:15.766Z,98774.41
2023-03-13T14:48:45.037Z,98764.94
2023-03-13T14:51:22.837Z,98771.88
2023-03-13T14:53:56.667Z,98771.94
2023-03-13T14:56:34.908Z,98758.19
2023-03-13T14:59:18.001Z,98763.94
2023-03-13T15:01:47.530Z,98762.22
2023-03-13T15:04:16.725Z,98755.84
2023-03-13T15:06:46.113Z,98752.16
2023-03-13T15:09:26.413Z,98748.53
2023-03-13T15:12:01.190Z,98739.84
2023-03-13T15:14:37.810Z,98744.22
2023-03-13T15:17:14.946Z,98734.28
2023-03-13T15:19:44.790Z,98724.03
2023-03-13T15:22:16.635Z,98725.88
2023-03-13T15:24:59.709Z,98733.97
2023-03-13T15:27:34.030Z,98720.94
2023-03-13T15:30:05.051Z,98713.91
2023-03-13T15:32:36.712Z,98712.41
2023-03-13T15:35:25.599Z,98715.94
2023-03-13T15:37:55.157Z,98724.91
2023-03-13T15:40:25.324Z,98705.94
2023-03-13T15:42:54.782Z,98714.41
2023-03-13T15:45:25.368Z,98717.34
2023-03-13T15:47:54.861Z,98708.75
2023-03-13T15:50:29.584Z,98714.34
2023-03-13T15:53:00.714Z,98696.91
2023-03-13T15:55:30.987Z,98688.69
2023-03-13T15:58:00.321Z,98690.91
2023-03-13T16:00:30.845Z,98692.19
2023-03-13T16:03:03.960Z,98692.13
2023-03-13T16:05:33.284Z,98686.81
2023-03-13T16:08:02.322Z,98680.28
2023-03-13T16:10:33.087Z,98672.19
2023-03-13T16:13:03.374Z,98681.34
2023-03-13T16:15:33.858Z,98687.66
2023-03-13T16:18:03.512Z,98684.09
2023-03-13T16:20:34.027Z,98681.47
2023-03-13T16:23:04.122Z,98674.13
2023-03-13T16:25:33.818Z,98683.44
2023-03-13T16:28:02.860Z,98672.72
2023-03-13T16:30:34.732Z,98673.91
2023-03-13T16:33:04.317Z,98663.13
2023-03-13T16:35:33.707Z,98676.50
2023-03-13T16:38:03.627Z,98669.88
2023-03-13T16:40:34.649Z,98665.66
2023-03-13T16:43:03.829Z,98666.94
2023-03-13T16:45:34.346Z,98673.44
2023-03-13T16:48:03.516Z,98665.56
2023-03-13T16:50:36.788Z,98665.19
2023-03-13T16:53:06.394Z,98677.81
2023-03-13T16:55:37.245Z,98667.25
2023-03-13T16:58:06.825Z,98672.31
2023-03-13T17:00:37.286Z,98678.56
2023-03-13T17:03:06.455Z,98672.09
2023-03-13T17:05:35.848Z,98677.66
2023-03-13T17:08:05.744Z,98663.53
2023-03-13T17:10:35.249Z,98667.59
2023-03-13T17:13:05.488Z,98665.34
2023-03-13T17:15:36.085Z,98656.41
2023-03-13T17:18:05.513Z,98661.34
2023-03-13T17:20:34.874Z,98656.78
2023-03-13T17:23:04.104Z,98657.16
2023-03-13T17:25:33.406Z,98666.78
2023-03-13T17:28:02.546Z,98672.00
2023-03-13T17:30:32.860Z,98655.22
2023-03-13T17:33:03.424Z,98656.56
2023-03-13T17:35:32.547Z,98670.06
2023-03-13T17:38:01.717Z,98679.28
2023-03-13T17:40:32.598Z,98671.41
2023-03-13T17:43:01.902Z,98674.75
2023-03-13T17:45:36.658Z,98683.28
2023-03-13T17:48:12.453Z,98676.63
2023-03-13T17:50:41.605Z,98680.63
2023-03-13T17:53:10.742Z,98677.44
2023-03-13T17:55:39.978Z,98677.22
2023-03-13T17:58:09.951Z,98679.72
2023-03-13T18:00:44.908Z,98689.91
2023-03-13T18:03:15.574Z,98695.34
2023-03-13T18:05:44.688Z,98683.22
2023-03-13T18:08:13.855Z,98692.03
2023-03-13T18:10:43.212Z,98686.47
2023-03-13T18:13:12.475Z,98686.59
2023-03-13T18:15:41.733Z,98690.09
2023-03-13T18:18:18.024Z,98688.41
2023-03-13T18:20:47.475Z,98700.41
2023-03-13T18:23:16.580Z,98692.34
2023-03-13T18:25:45.958Z,98697.09
2023-03-13T18:28:15.235Z,98706.31
2023-03-13T18:30:44.270Z,98696.00
2023-03-13T18:33:13.470Z,98687.47
2023-03-13T18:35:43.917Z,98689.72
2023-03-13T18:38:13.853Z,98695.53
2023-03-13T18:40:42.986Z,98703.97
2023-03-13T18:43:12.373Z,98698.25
2023-03-13T18:45:41.905Z,98698.72
2023-03-13T18:48:12.209Z,98699.34
2023-03-13T18:50:42.808Z,98705.59
2023-03-13T18:53:12.082Z,98701.16
2023-03-13T18:55:41.180Z,98710.28
2023-03-13T18:58:11.628Z,98704.16
2023-03-13T19:00:41.159Z,98709.28
2023-03-13T19:03:10.564Z,98709.66
2023-03-13T19:05:40.117Z,98714.94
2023-03-13T19:08:12.532Z,98723.44
2023-03-13T19:10:42.147Z,98732.78
2023-03-13T19:13:11.581Z,98735.00
2023-03-13T19:15:40.743Z,98735.00
2023-03-13T19:18:12.853Z,98744.75
2023-03-13T19:20:41.944Z,98741.28
2023-03-13T19:23:13.069Z,98742.72
2023-03-13T19:25:42.268Z,98749.56
2023-03-13T19:28:11.694Z,98752.81
2023-03-13T19:30:43.783Z,98768.84
2023-03-13T19:33:13.047Z,98750.75
2023-03-13T19:35:42.257Z,98747.13
2023-03-13T19:38:14.025Z,98753.34
2023-03-13T19:40:43.089Z,98737.56
2023-03-13T19:43:12.269Z,98748.66
2023-03-13T19:45:41.801Z,98744.81
2023-03-13T19:48:11.096Z,98741.56
2023-03-13T19:50:40.280Z,98737.84
2023-03-13T19:53:09.482Z,98738.59
2023-03-13T19:55:39.978Z,98750.13
2023-03-13T19:58:09.324Z,98755.16
2023-03-13T20:00:38.835Z,98747.25
2023-03-13T20:03:08.061Z,98741.56
2023-03-13T20:05:37.109Z,98738.72
2023-03-13T20:08:06.357Z,98727.34
2023-03-13T20:10:35.639Z,98723.91
2023-03-13T20:13:06.295Z,98720.41
2023-03-13T20:15:35.509Z,98725.09
2023-03-13T20:18:05.012Z,98710.72
2023-03-13T20:20:34.301Z,98702.34
2023-03-13T20:23:03.437Z,98697.84
2023-03-13T20:25:32.948Z,98693.81
2023-03-13T20:28:02.073Z,98687.78
2023-03-13T20:30:32.677Z,98693.47
2023-03-13T20:33:01.953Z,98702.75
2023-03-13T20:35:31.512Z,98718.09
2023-03-13T20:38:01.830Z,98716.31
2023-03-13T20:40:31.011Z,98718.03
2023-03-13T20:43:00.904Z,98705.31
2023-03-13T20:45:32.247Z,98704.41
2023-03-13T20:48:01.425Z,98695.44
2023-03-13T20:50:30.563Z,98700.34
2023-03-13T20:52:59.660Z,98695.91
2023-03-13T20:55:30.340Z,98699.75
2023-03-13T20:57:59.584Z,98699.94
2023-03-13T21:00:28.751Z,98692.50
2023-03-13T21:02:59.473Z,98691.00
2023-03-13T21:05:29.033Z,98678.00
2023-03-13T21:07:58.345Z,98675.13
2023-03-13T21:10:27.574Z,98677.09
2023-03-13T21:12:56.617Z,98678.78
2023-03-13T21:15:25.830Z,98680.44
2023-03-13T21:17:56.357Z,98673.50
2023-03-13T21:20:27.237Z,98675.53
2023-03-13T21:22:56.588Z,98664.19
2023-03-13T21:25:26.008Z,98669.78
2023-03-13T21:27:55.175Z,98680.72
2023-03-13T21:30:24.593Z,98682.78
2023-03-13T21:32:54.342Z,98695.22
2023-03-13T21:35:23.591Z,98691.75
2023-03-13T21:37:54.139Z,98693.63
2023-03-13T21:40:23.311Z,98690.41
2023-03-13T21:42:52.524Z,98697.34
2023-03-13T21:45:21.935Z,98699.53
2023-03-13T21:47:51.187Z,98704.22
2023-03-13T21:52:56.472Z,98717.97
2023-03-13T21:55:25.675Z,98716.53
2023-03-13T21:57:54.937Z,98728.22
2023-03-13T22:00:24.600Z,98718.66
2023-03-13T22:02:53.680Z,98723.34
2023-03-13T22:05:22.844Z,98718.47
2023-03-13T22:07:52.068Z,98717.59
2023-03-13T22:10:22.659Z,98716.88
2023-03-13T22:12:51.814Z,98718.69
2023-03-13T22:15:21.132Z,98715.59
2023-03-13T22:17:50.266Z,98702.75
2023-03-13T22:20:19.549Z,98703.53
2023-03-13T22:22:48.763Z,98697.50
2023-03-13T22:25:18.249Z,98685.19
2023-03-13T22:27:48.848Z,98687.97
2023-03-13T22:30:18.263Z,98686.38
2023-03-13T22:32:47.473Z,98685.50
2023-03-13T22:35:16.746Z,98680.31
2023-03-13T22:37:46.188Z,98676.22
2023-03-13T22:40:15.471Z,98679.38
2023-03-13T22:42:44.599Z,98678.56
2023-03-13T22:45:15.942Z,98670.66
2023-03-13T22:47:45.257Z,98665.47
2023-03-13T22:50:15.761Z,98668.25
2023-03-13T22:52:45.101Z,98663.34
2023-03-13T22:55:14.620Z,98660.25
2023-03-13T22:57:43.792Z,98658.63
2023-03-13T23:00:16.132Z,98659.25
2023-03-13T23:02:45.355Z,98648.50
2023-03-13T23:05:14.602Z,98649.16
2023-03-13T23:07:44.543Z,98644.50
2023-03-13T23:10:14.017Z,98645.47
2023-03-13T23:12:43.389Z,98648.31
2023-03-13T23:15:13.201Z,98645.59
2023-03-13T23:17:43.780Z,98634.09
2023-03-13T23:20:13.975Z,98630.66
2023-03-13T23:22:44.192Z,98632.44
2023-03-13T23:25:14.808Z,98617.88
2023-03-13T23:27:44.060Z,98626.28
2023-03-13T23:30:15.612Z,98619.91
2023-03-13T23:32:48.203Z,98622.53
2023-03-13T23:35:17.879Z,98623.13
2023-03-13T23:37:50.845Z,98624.16
2023-03-13T23:40:20.868Z,98625.03
2023-03-13T23:42:51.728Z,98626.28
2023-03-13T23:45:21.329Z,98617.19
2023-03-13T23:47:54.549Z,98624.38
2023-03-13T23:50:24.102Z,98626.03
2023-03-13T23:52:53.138Z,98624.13
2023-03-13T23:55:22.258Z,98611.75
2023-03-13T23:57:51.668Z,98612.72
